Главная страница
METAR-TAF:

METAR-TAF

Аэропорты :

Millville, Нью-Джерси, США

широта: 39-21-58N, долгота: 075-04-42W, высота над уровнем моря: 26 м

Текущие метеонаблюдения

Эта сводка был подготовлена 38 минут назад, в 13:54 UTC
Штиль
Температура 27°C
Влажность 74%
Давление 1021 hPa
Видимость: 16.1 км
ясное небо

METAR: KMIV 091354Z AUTO 00000KT 10SM CLR 27/22 A3014 RMK AO2 SLP206 T02720217

Время: 10:32 (14:32 UTC)

Прогноз

Эта сводка был подготовлена 3 часа и 10 минут назад, в 11:22 UTC
Прогноз действительный с 09-го 12 UTC до 10-го 12 UTC
Ветер 3 Узел переменных направлений
Видимость: 10 км
ясное небо
С 09-го 1500 UTC
Ветер 6 Узел от юго-западный
Видимость: 10 км
Отдельные облака на высоте 5000 фута
С 10-го 0400 UTC
Ветер 4 Узел переменных направлений
Видимость: 10 км
Отдельные облака на высоте 20000 фута

TAF: KMIV 091122Z 0912/1012 VRB03KT P6SM SKC FM091500 22006KT P6SM SCT050 FM100400 VRB04KT P6SM SCT200

Метеонаблюдения и прогнозы для более 4000 аэропортов (сводки METAR и TAF).

Имеющиеся станции представлены на карте желтыми и красными точками.

Чтобы увидеть название станции, наведите на нее мышь.

Затем щелкните, чтобы увидеть метеонаблюдения и метеопрогнозы.

Управление картой: чтобы увеличить масштаб, щелкните зеленые кнопки с черным крестиком; чтобы уменьшить масштаб, щелкните зеленую кнопку с тире; для просмотра соседних карт щелкайте зеленые стрелки.


METAR-TAF: